Time,TemperatureF,DewpointF,PressureIn,WindDirection,WindDirectionDegrees,WindSpeedMPH,WindSpeedGustMPH,Humidity,HourlyPrecipIn,Conditions,Clouds,dailyrainin,SoftwareType,DateUTC
2013-08-03 00:11:00,66.3,64.0,25.71,ESE,120,11.0,14.0,93,0.00,,,0.00,weatherlink.com 1.10,2013-08-03 06:11:00,
2013-08-03 00:26:00,66.0,64.0,25.71,ESE,113,11.0,15.0,94,0.00,,,0.00,weatherlink.com 1.10,2013-08-03 06:26:00,
2013-08-03 00:41:00,65.8,64.0,25.71,ESE,123,10.0,15.0,95,0.00,,,0.00,weatherlink.com 1.10,2013-08-03 06:41:00,
2013-08-03 00:56:00,66.1,65.0,25.71,SE,145,13.0,19.0,95,0.00,,,0.00,weatherlink.com 1.10,2013-08-03 06:56:00,
2013-08-03 01:11:00,66.4,65.0,25.71,SE,128,10.0,19.0,95,0.00,,,0.00,weatherlink.com 1.10,2013-08-03 07:11:00,
2013-08-03 01:26:00,66.6,65.0,25.71,SE,124,12.0,19.0,94,0.00,,,0.00,weatherlink.com 1.10,2013-08-03 07:26:00,
2013-08-03 01:41:00,66.6,65.0,25.70,SE,125,16.0,21.0,94,0.00,,,0.00,weatherlink.com 1.10,2013-08-03 07:41:00,
2013-08-03 01:56:00,66.5,65.0,25.70,SE,134,14.0,24.0,95,0.00,,,0.00,weatherlink.com 1.10,2013-08-03 07:56:00,
2013-08-03 02:11:00,66.4,65.0,25.69,South,176,11.0,18.0,95,0.00,,,0.00,weatherlink.com 1.10,2013-08-03 08:11:00,
2013-08-03 02:27:00,66.1,65.0,25.68,ESE,117,18.0,24.0,95,0.00,,,0.00,weatherlink.com 1.10,2013-08-03 08:27:00,
2013-08-03 02:42:00,65.9,65.0,25.69,SSE,148,15.0,22.0,95,0.00,,,0.00,weatherlink.com 1.10,2013-08-03 08:42:00,
2013-08-03 02:57:00,65.8,64.0,25.68,SE,133,12.0,19.0,95,0.00,,,0.00,weatherlink.com 1.10,2013-08-03 08:57:00,
2013-08-03 03:12:00,65.8,64.0,25.68,ESE,117,16.0,24.0,95,0.00,,,0.00,weatherlink.com 1.10,2013-08-03 09:12:00,
2013-08-03 03:27:00,65.8,65.0,25.69,SE,134,13.0,22.0,96,0.00,,,0.00,weatherlink.com 1.10,2013-08-03 09:27:00,
2013-08-03 03:42:00,65.8,65.0,25.69,SSE,155,10.0,16.0,96,0.00,,,0.00,weatherlink.com 1.10,2013-08-03 09:42:00,
2013-08-03 03:56:00,65.7,65.0,25.69,SSE,155,15.0,22.0,96,0.00,,,0.00,weatherlink.com 1.10,2013-08-03 09:56:00,
2013-08-03 04:12:00,65.7,65.0,25.68,SSE,153,12.0,20.0,96,0.00,,,0.00,weatherlink.com 1.10,2013-08-03 10:12:00,
2013-08-03 04:27:00,65.8,65.0,25.68,SE,129,17.0,18.0,96,0.00,,,0.00,weatherlink.com 1.10,2013-08-03 10:27:00,
2013-08-03 04:42:00,65.9,65.0,25.69,ESE,120,11.0,16.0,96,0.00,,,0.00,weatherlink.com 1.10,2013-08-03 10:42:00,
2013-08-03 04:57:00,65.8,65.0,25.69,SE,145,10.0,17.0,96,0.00,,,0.00,weatherlink.com 1.10,2013-08-03 10:57:00,
2013-08-03 05:12:00,65.6,65.0,25.70,SE,145,11.0,18.0,97,0.00,,,0.00,weatherlink.com 1.10,2013-08-03 11:12:00,
2013-08-03 05:27:00,65.7,65.0,25.70,SSE,156,11.0,15.0,97,0.00,,,0.00,weatherlink.com 1.10,2013-08-03 11:27:00,
2013-08-03 05:42:00,65.8,65.0,25.71,SSE,165,13.0,18.0,97,0.00,,,0.00,weatherlink.com 1.10,2013-08-03 11:42:00,
2013-08-03 05:57:00,65.9,65.0,25.71,SSE,153,16.0,19.0,97,0.00,,,0.00,weatherlink.com 1.10,2013-08-03 11:57:00,
2013-08-03 06:12:00,66.0,65.0,25.70,SSE,149,13.0,18.0,97,0.00,,,0.00,weatherlink.com 1.10,2013-08-03 12:12:00,
2013-08-03 06:27:00,66.2,66.0,25.71,SSE,149,7.0,18.0,98,0.00,,,0.00,weatherlink.com 1.10,2013-08-03 12:27:00,
2013-08-03 06:42:00,66.4,66.0,25.71,SSE,149,11.0,19.0,97,0.00,,,0.00,weatherlink.com 1.10,2013-08-03 12:42:00,
2013-08-03 06:58:00,66.4,66.0,25.72,South,176,13.0,21.0,97,0.00,,,0.00,weatherlink.com 1.10,2013-08-03 12:58:00,
2013-08-03 07:12:00,66.5,66.0,25.72,SSE,167,16.0,21.0,97,0.00,,,0.00,weatherlink.com 1.10,2013-08-03 13:12:00,
2013-08-03 07:27:00,66.6,66.0,25.72,SSE,150,13.0,19.0,97,0.00,,,0.00,weatherlink.com 1.10,2013-08-03 13:27:00,
2013-08-03 07:42:00,66.5,66.0,25.72,SSE,153,13.0,18.0,97,0.00,,,0.00,weatherlink.com 1.10,2013-08-03 13:42:00,
2013-08-03 07:57:00,65.9,65.0,25.72,SE,135,16.0,21.0,97,0.00,,,0.00,weatherlink.com 1.10,2013-08-03 13:57:00,
2013-08-03 08:12:00,66.7,66.0,25.73,SSE,149,14.0,19.0,97,0.00,,,0.00,weatherlink.com 1.10,2013-08-03 14:12:00,
2013-08-03 08:27:00,66.5,66.0,25.73,SE,138,11.0,20.0,97,0.00,,,0.00,weatherlink.com 1.10,2013-08-03 14:27:00,
2013-08-03 08:42:00,66.4,66.0,25.74,SE,143,13.0,20.0,97,0.00,,,0.00,weatherlink.com 1.10,2013-08-03 14:42:00,
2013-08-03 08:57:00,66.3,65.0,25.75,East,97,11.0,15.0,96,0.00,,,0.00,weatherlink.com 1.10,2013-08-03 14:57:00,
2013-08-03 09:12:00,66.5,66.0,25.76,ESE,113,9.0,14.0,97,0.00,,,0.00,weatherlink.com 1.10,2013-08-03 15:12:00,
2013-08-03 09:27:00,67.1,66.0,25.77,East,84,10.0,12.0,95,0.00,,,0.00,weatherlink.com 1.10,2013-08-03 15:27:00,
2013-08-03 09:42:00,67.0,65.0,25.77,East,100,10.0,14.0,94,0.00,,,0.00,weatherlink.com 1.10,2013-08-03 15:42:00,
2013-08-03 09:57:00,67.3,66.0,25.77,East,94,12.0,12.0,94,0.00,,,0.00,weatherlink.com 1.10,2013-08-03 15:57:00,
2013-08-03 10:12:00,67.5,66.0,25.78,East,84,8.0,13.0,93,0.00,,,0.00,weatherlink.com 1.10,2013-08-03 16:12:00,
2013-08-03 10:27:00,65.9,64.0,25.78,East,85,13.0,17.0,94,0.00,,,0.00,weatherlink.com 1.10,2013-08-03 16:27:00,
2013-08-03 10:42:00,64.9,64.0,25.79,East,89,17.0,19.0,96,0.01,,,0.01,weatherlink.com 1.10,2013-08-03 16:42:00,
2013-08-03 10:57:00,65.2,64.0,25.79,East,91,13.0,15.0,97,0.03,,,0.03,weatherlink.com 1.10,2013-08-03 16:57:00,
2013-08-03 11:12:00,65.4,65.0,25.79,ESE,111,19.0,20.0,97,0.04,,,0.04,weatherlink.com 1.10,2013-08-03 17:12:00,
2013-08-03 11:27:00,66.3,66.0,25.78,ESE,115,19.0,25.0,97,0.04,,,0.04,weatherlink.com 1.10,2013-08-03 17:27:00,
2013-08-03 11:42:00,66.3,65.0,25.78,ESE,118,18.0,28.0,96,0.03,,,0.04,weatherlink.com 1.10,2013-08-03 17:42:00,
2013-08-03 11:57:00,66.2,65.0,25.78,SE,124,24.0,29.0,94,0.01,,,0.04,weatherlink.com 1.10,2013-08-03 17:57:00,
2013-08-03 12:12:00,66.2,65.0,25.79,ESE,103,22.0,26.0,95,0.00,,,0.04,weatherlink.com 1.10,2013-08-03 18:12:00,
2013-08-03 12:27:00,65.7,64.0,25.79,ESE,114,18.0,28.0,94,0.00,,,0.04,weatherlink.com 1.10,2013-08-03 18:27:00,
2013-08-03 12:43:00,64.9,64.0,25.80,ENE,72,16.0,26.0,95,0.00,,,0.04,weatherlink.com 1.10,2013-08-03 18:43:00,
2013-08-03 12:58:00,64.0,63.0,25.80,ESE,108,28.0,29.0,96,0.00,,,0.04,weatherlink.com 1.10,2013-08-03 18:58:00,
2013-08-03 13:13:00,63.9,63.0,25.79,SE,129,13.0,23.0,96,0.00,,,0.04,weatherlink.com 1.10,2013-08-03 19:13:00,
2013-08-03 13:28:00,64.0,63.0,25.79,SE,136,18.0,30.0,95,0.00,,,0.04,weatherlink.com 1.10,2013-08-03 19:28:00,
2013-08-03 13:42:00,63.9,63.0,25.79,SE,142,17.0,28.0,95,0.00,,,0.04,weatherlink.com 1.10,2013-08-03 19:42:00,
2013-08-03 13:57:00,65.8,64.0,25.79,ESE,113,24.0,27.0,92,0.00,,,0.04,weatherlink.com 1.10,2013-08-03 19:57:00,
2013-08-03 14:13:00,65.6,63.0,25.78,ESE,105,21.0,25.0,92,0.00,,,0.04,weatherlink.com 1.10,2013-08-03 20:13:00,
2013-08-03 14:28:00,65.5,63.0,25.79,SE,137,21.0,26.0,92,0.00,,,0.04,weatherlink.com 1.10,2013-08-03 20:28:00,
2013-08-03 14:42:00,65.1,63.0,25.79,ESE,108,26.0,28.0,92,0.00,,,0.04,weatherlink.com 1.10,2013-08-03 20:42:00,
2013-08-03 14:58:00,64.9,63.0,25.78,SE,136,17.0,24.0,93,0.00,,,0.04,weatherlink.com 1.10,2013-08-03 20:58:00,
2013-08-03 15:13:00,65.2,63.0,25.78,ESE,108,22.0,25.0,92,0.00,,,0.04,weatherlink.com 1.10,2013-08-03 21:13:00,
2013-08-03 15:28:00,65.3,63.0,25.78,SE,128,25.0,25.0,92,0.00,,,0.04,weatherlink.com 1.10,2013-08-03 21:28:00,
2013-08-03 15:43:00,65.6,63.0,25.78,SE,145,16.0,26.0,91,0.00,,,0.04,weatherlink.com 1.10,2013-08-03 21:43:00,
2013-08-03 15:58:00,65.8,63.0,25.79,SSE,152,19.0,26.0,91,0.00,,,0.04,weatherlink.com 1.10,2013-08-03 21:58:00,
2013-08-03 16:13:00,66.0,63.0,25.80,SSE,156,14.0,24.0,90,0.00,,,0.04,weatherlink.com 1.10,2013-08-03 22:13:00,
2013-08-03 16:28:00,65.6,63.0,25.79,SE,135,14.0,24.0,91,0.00,,,0.04,weatherlink.com 1.10,2013-08-03 22:28:00,
2013-08-03 16:43:00,65.5,63.0,25.78,SSE,155,11.0,24.0,91,0.00,,,0.04,weatherlink.com 1.10,2013-08-03 22:43:00,
2013-08-03 16:58:00,65.5,63.0,25.77,SSE,156,19.0,29.0,91,0.00,,,0.04,weatherlink.com 1.10,2013-08-03 22:58:00,
2013-08-03 17:13:00,65.1,63.0,25.76,SE,133,15.0,27.0,93,0.00,,,0.04,weatherlink.com 1.10,2013-08-03 23:13:00,
2013-08-03 17:28:00,64.9,63.0,25.77,ENE,58,12.0,23.0,94,0.00,,,0.04,weatherlink.com 1.10,2013-08-03 23:28:00,
2013-08-03 17:43:00,64.8,63.0,25.77,ENE,62,8.0,9.0,94,0.00,,,0.04,weatherlink.com 1.10,2013-08-03 23:43:00,
2013-08-03 18:13:00,64.3,63.0,25.75,ESE,115,18.0,25.0,94,0.00,,,0.04,weatherlink.com 1.10,2013-08-04 00:13:00,
2013-08-03 18:28:00,64.5,63.0,25.76,SE,141,11.0,21.0,94,0.01,,,0.05,weatherlink.com 1.10,2013-08-04 00:28:00,
2013-08-03 18:43:00,64.5,63.0,25.77,SSE,149,13.0,22.0,94,0.01,,,0.05,weatherlink.com 1.10,2013-08-04 00:43:00,
2013-08-03 18:58:00,64.5,63.0,25.78,SSE,150,21.0,29.0,94,0.01,,,0.05,weatherlink.com 1.10,2013-08-04 00:58:00,
2013-08-03 19:13:00,64.3,63.0,25.78,South,172,13.0,20.0,94,0.01,,,0.05,weatherlink.com 1.10,2013-08-04 01:13:00,
2013-08-03 19:28:00,64.2,63.0,25.79,SE,136,16.0,23.0,94,0.00,,,0.05,weatherlink.com 1.10,2013-08-04 01:28:00,
2013-08-03 19:43:00,64.0,62.0,25.80,SSW,195,7.0,21.0,94,0.00,,,0.05,weatherlink.com 1.10,2013-08-04 01:43:00,
2013-08-03 19:58:00,63.9,63.0,25.79,SSE,160,10.0,15.0,95,0.00,,,0.05,weatherlink.com 1.10,2013-08-04 01:58:00,
2013-08-03 20:13:00,63.7,62.0,25.78,SSE,163,15.0,15.0,95,0.00,,,0.05,weatherlink.com 1.10,2013-08-04 02:13:00,
2013-08-03 20:28:00,63.4,62.0,25.78,SE,146,10.0,22.0,96,0.00,,,0.05,weatherlink.com 1.10,2013-08-04 02:28:00,
2013-08-03 20:43:00,63.2,62.0,25.79,SE,146,18.0,20.0,96,0.00,,,0.05,weatherlink.com 1.10,2013-08-04 02:43:00,
2013-08-03 20:58:00,63.2,62.0,25.80,SSE,162,17.0,18.0,97,0.00,,,0.05,weatherlink.com 1.10,2013-08-04 02:58:00,
2013-08-03 21:13:00,63.1,62.0,25.81,SE,136,13.0,16.0,97,0.00,,,0.05,weatherlink.com 1.10,2013-08-04 03:13:00,
2013-08-03 21:28:00,63.1,62.0,25.82,SSE,163,7.0,15.0,97,0.00,,,0.05,weatherlink.com 1.10,2013-08-04 03:28:00,
2013-08-03 21:43:00,63.2,62.0,25.82,SSW,203,11.0,13.0,97,0.00,,,0.05,weatherlink.com 1.10,2013-08-04 03:43:00,
2013-08-03 21:58:00,63.3,63.0,25.83,South,191,10.0,14.0,97,0.00,,,0.05,weatherlink.com 1.10,2013-08-04 03:58:00,
2013-08-03 22:13:00,63.4,62.0,25.83,South,191,11.0,14.0,96,0.00,,,0.05,weatherlink.com 1.10,2013-08-04 04:13:00,
2013-08-03 22:28:00,63.4,62.0,25.82,SW,221,8.0,13.0,96,0.00,,,0.05,weatherlink.com 1.10,2013-08-04 04:28:00,
2013-08-03 22:43:00,63.0,62.0,25.81,SW,231,5.0,12.0,95,0.00,,,0.05,weatherlink.com 1.10,2013-08-04 04:43:00,
2013-08-03 22:58:00,62.2,61.0,25.81,South,189,3.0,7.0,96,0.00,,,0.05,weatherlink.com 1.10,2013-08-04 04:58:00,
2013-08-03 23:13:00,61.6,61.0,25.81,SSW,207,2.0,4.0,96,0.00,,,0.05,weatherlink.com 1.10,2013-08-04 05:13:00,
2013-08-03 23:28:00,61.2,60.0,25.80,SW,217,8.0,8.0,97,0.00,,,0.05,weatherlink.com 1.10,2013-08-04 05:28:00,
2013-08-03 23:43:00,61.4,61.0,25.79,SW,229,6.0,10.0,97,0.00,,,0.05,weatherlink.com 1.10,2013-08-04 05:43:00,
2013-08-03 23:58:00,61.3,60.0,25.77,SSE,151,6.0,12.0,96,0.00,,,0.05,weatherlink.com 1.10,2013-08-04 05:58:00,